Time;durP1;ratioP1;P1;durP2;ratioP2;P2;SDS_P1;SDS_P2;PMS_P1;PMS_P2;Temp;Humidity;BMP_temperature;BMP_pressure;BME280_temperature;BME280_humidity;BME280_pressure;Samples;Min_cycle;Max_cycle;Signal;HPM_P1;HPM_P2
2023/12/12 00:00:48;;;;;;;11.48;1.20;;;7.20;99.90;;;;;;4115987;28;20125;-80
2023/12/12 00:02:49;;;;;;;5.55;0.90;;;6.80;99.90;;;;;;4116411;28;20066;-80
2023/12/12 00:04:49;;;;;;;4.65;0.93;;;7.10;99.90;;;;;;4115980;28;20502;-80
2023/12/12 00:06:51;;;;;;;4.35;0.88;;;6.80;99.90;;;;;;4115955;28;20043;-80
2023/12/12 00:08:53;;;;;;;3.33;1.10;;;7.50;99.90;;;;;;4115516;28;20070;-80
2023/12/12 00:10:54;;;;;;;6.20;1.00;;;6.80;99.90;;;;;;4116790;28;20046;-80
2023/12/12 00:12:55;;;;;;;5.03;0.85;;;6.80;99.90;;;;;;4116522;28;20070;-80
2023/12/12 00:14:55;;;;;;;1.15;0.60;;;7.00;99.90;;;;;;4116188;28;20055;-80
2023/12/12 00:16:56;;;;;;;2.88;0.77;;;7.10;99.90;;;;;;4116483;28;20082;-80
2023/12/12 00:18:57;;;;;;;7.65;0.82;;;6.90;99.90;;;;;;4116469;28;20449;-80
2023/12/12 00:20:57;;;;;;;6.00;0.90;;;6.80;99.90;;;;;;4116545;28;20047;-80
2023/12/12 00:22:59;;;;;;;5.90;0.90;;;6.80;99.90;;;;;;4120990;28;20058;-80
2023/12/12 00:25:01;;;;;;;7.32;0.90;;;7.00;99.90;;;;;;4119913;28;20062;-80
2023/12/12 00:27:03;;;;;;;6.78;1.50;;;6.80;99.90;;;;;;4121417;28;20050;-80
2023/12/12 00:29:03;;;;;;;3.42;1.00;;;6.20;99.90;;;;;;4121653;28;20049;-80
2023/12/12 00:31:04;;;;;;;4.57;0.85;;;6.80;99.90;;;;;;4121095;28;20047;-80
2023/12/12 00:33:05;;;;;;;3.20;0.70;;;6.80;99.90;;;;;;4121498;28;20043;-80
2023/12/12 00:35:06;;;;;;;11.80;0.80;;;6.70;99.90;;;;;;4121477;28;20129;-80
2023/12/12 00:37:07;;;;;;;10.85;1.08;;;6.70;99.90;;;;;;4121352;28;20046;-80
2023/12/12 00:39:07;;;;;;;4.45;0.68;;;6.60;99.90;;;;;;4120699;28;20046;-80
2023/12/12 00:41:08;;;;;;;6.88;1.35;;;6.70;99.90;;;;;;4120505;28;20050;-80
2023/12/12 00:43:09;;;;;;;4.80;0.90;;;6.60;99.90;;;;;;4136372;28;20042;-80
2023/12/12 00:45:09;;;;;;;7.07;0.85;;;6.50;99.90;;;;;;4120790;28;20051;-80
2023/12/12 00:47:11;;;;;;;4.70;1.05;;;6.60;99.90;;;;;;4118739;28;20089;-80
2023/12/12 00:49:12;;;;;;;9.77;0.93;;;6.40;99.90;;;;;;4105350;28;20492;-80
2023/12/12 00:51:12;;;;;;;4.57;0.80;;;6.40;99.90;;;;;;4105153;28;20125;-80
2023/12/12 00:53:13;;;;;;;6.53;1.15;;;6.40;99.90;;;;;;4105301;28;20043;-80
2023/12/12 00:55:14;;;;;;;4.68;0.95;;;6.40;99.90;;;;;;4105384;28;20127;-79
2023/12/12 00:57:14;;;;;;;3.40;0.77;;;6.80;99.90;;;;;;4105441;28;20051;-80
2023/12/12 00:59:16;;;;;;;4.25;0.73;;;6.30;99.90;;;;;;4105728;28;20043;-80
2023/12/12 01:01:18;;;;;;;4.75;1.15;;;6.40;99.90;;;;;;4105788;28;20456;-80
2023/12/12 01:03:18;;;;;;;4.78;0.88;;;7.00;99.90;;;;;;4107395;28;20421;-80
2023/12/12 01:05:19;;;;;;;4.97;1.10;;;6.80;99.90;;;;;;4130241;28;20106;-79
2023/12/12 01:07:20;;;;;;;4.68;1.02;;;6.10;99.90;;;;;;4123255;28;20053;-80
2023/12/12 01:09:22;;;;;;;6.93;1.00;;;6.10;99.90;;;;;;4122878;28;20054;-80
2023/12/12 01:11:23;;;;;;;5.72;1.20;;;6.30;99.90;;;;;;4122657;28;20034;-80
2023/12/12 01:13:24;;;;;;;6.38;0.73;;;6.40;99.90;;;;;;4122640;28;20047;-80
2023/12/12 01:15:24;;;;;;;4.85;0.90;;;6.10;99.90;;;;;;4119478;28;20042;-80
2023/12/12 01:17:26;;;;;;;2.92;0.70;;;6.70;99.90;;;;;;4123063;28;20570;-80
2023/12/12 01:19:27;;;;;;;9.05;1.27;;;6.10;99.90;;;;;;4121893;28;20056;-79
2023/12/12 01:21:28;;;;;;;12.32;1.73;;;7.40;99.90;;;;;;4121200;28;20043;-79
2023/12/12 01:23:53;;;;;;;3.40;1.13;;;6.00;99.90;;;;;;4121397;28;20047;-79
2023/12/12 01:25:53;;;;;;;4.80;1.10;;;6.00;99.90;;;;;;4121306;28;20054;-79
2023/12/12 01:27:54;;;;;;;6.25;1.00;;;6.60;99.90;;;;;;4119349;28;20051;-79
2023/12/12 01:29:56;;;;;;;4.85;1.00;;;6.00;99.90;;;;;;4121122;28;20046;-80
2023/12/12 01:31:56;;;;;;;5.22;1.00;;;6.00;99.90;;;;;;4120395;28;20132;-79
2023/12/12 01:33:57;;;;;;;3.20;1.42;;;6.50;99.90;;;;;;4118499;28;20043;-79
2023/12/12 01:35:58;;;;;;;6.90;1.55;;;5.90;99.90;;;;;;4118871;28;20051;-79
2023/12/12 01:37:58;;;;;;;7.82;1.42;;;6.90;99.90;;;;;;4117418;28;20101;-79
2023/12/12 01:39:59;;;;;;;5.95;1.20;;;7.20;99.90;;;;;;4117523;28;20466;-79
2023/12/12 01:42:00;;;;;;;8.23;1.55;;;6.60;99.90;;;;;;4117310;28;20093;-79
2023/12/12 01:44:02;;;;;;;5.32;1.35;;;;;;;;;;4125330;28;20049;-78
2023/12/12 01:46:05;;;;;;;4.47;1.00;;;5.70;99.90;;;;;;4132192;28;20074;-81
2023/12/12 01:48:06;;;;;;;2.60;1.23;;;5.60;99.90;;;;;;4118672;28;20093;-79
2023/12/12 01:50:07;;;;;;;10.88;1.30;;;5.70;99.90;;;;;;4118048;28;20046;-82
2023/12/12 01:52:09;;;;;;;5.45;1.10;;;5.50;99.90;;;;;;4137930;28;20068;-82
2023/12/12 01:54:09;;;;;;;7.10;1.52;;;5.60;99.90;;;;;;4130655;28;20049;-79
2023/12/12 01:56:11;;;;;;;5.80;1.33;;;5.50;99.90;;;;;;4127714;28;20051;-79
2023/12/12 01:58:13;;;;;;;4.78;1.20;;;5.80;99.90;;;;;;4127258;28;20106;-79
2023/12/12 02:00:15;;;;;;;6.70;1.30;;;5.40;99.90;;;;;;4126868;28;20050;-80
2023/12/12 02:02:19;;;;;;;2.90;1.30;;;5.40;99.90;;;;;;4125428;28;20049;-79
2023/12/12 02:04:20;;;;;;;5.43;1.30;;;5.30;99.90;;;;;;4125854;28;20051;-79
2023/12/12 02:06:25;;;;;;;5.90;1.48;;;5.30;99.90;;;;;;4123928;28;20134;-80
2023/12/12 02:08:26;;;;;;;5.18;1.52;;;5.30;99.90;;;;;;4119412;28;20065;-80
2023/12/12 02:10:28;;;;;;;3.97;1.77;;;6.20;99.90;;;;;;4117353;28;20082;-80
2023/12/12 02:12:29;;;;;;;6.93;1.58;;;5.20;99.90;;;;;;4117303;28;20050;-80
2023/12/12 02:14:31;;;;;;;8.50;1.25;;;5.20;99.90;;;;;;4117348;28;20051;-82
2023/12/12 02:16:32;;;;;;;5.15;1.48;;;5.20;99.90;;;;;;4119412;28;20062;-82
2023/12/12 02:18:34;;;;;;;3.17;1.00;;;5.30;99.90;;;;;;4119246;28;20050;-79
2023/12/12 02:20:36;;;;;;;4.95;1.50;;;5.10;99.90;;;;;;4117758;28;20081;-80
2023/12/12 02:22:36;;;;;;;5.45;1.48;;;5.10;99.90;;;;;;4118465;28;20455;-79
2023/12/12 02:24:38;;;;;;;3.40;1.50;;;5.60;99.90;;;;;;4118456;28;20043;-79
2023/12/12 02:26:39;;;;;;;6.43;1.75;;;5.00;99.90;;;;;;4118690;28;20106;-79
2023/12/12 02:28:42;;;;;;;2.60;1.10;;;5.70;99.90;;;;;;4118068;28;20047;-79
2023/12/12 02:30:43;;;;;;;6.07;1.45;;;5.00;99.90;;;;;;4118463;28;20388;-79
2023/12/12 02:32:43;;;;;;;3.58;1.25;;;5.10;99.90;;;;;;4117738;28;20089;-79
2023/12/12 02:34:46;;;;;;;4.72;1.42;;;4.90;99.90;;;;;;4118470;28;20035;-79
2023/12/12 02:36:46;;;;;;;5.25;1.80;;;4.90;99.90;;;;;;4117876;28;20059;-80
2023/12/12 02:38:47;;;;;;;5.03;1.60;;;5.70;99.90;;;;;;4117146;28;20456;-82
2023/12/12 02:40:48;;;;;;;3.22;1.10;;;4.90;99.90;;;;;;4118111;28;20045;-82
2023/12/12 02:42:50;;;;;;;2.50;1.42;;;4.80;99.90;;;;;;4117281;28;20513;-82
2023/12/12 02:44:52;;;;;;;4.40;1.50;;;4.80;99.90;;;;;;4118023;28;20081;-80
2023/12/12 02:46:53;;;;;;;7.60;1.40;;;5.40;99.90;;;;;;4118396;28;20072;-79
2023/12/12 02:48:53;;;;;;;5.90;1.38;;;4.80;99.90;;;;;;4117844;28;20057;-79
2023/12/12 02:50:54;;;;;;;4.57;1.13;;;4.70;99.90;;;;;;4117447;28;20472;-79
2023/12/12 02:52:54;;;;;;;4.93;1.52;;;4.70;99.90;;;;;;4118317;28;20046;-80
2023/12/12 02:54:57;;;;;;;5.78;1.90;;;4.70;99.90;;;;;;4116970;28;20042;-79
2023/12/12 02:56:59;;;;;;;8.65;1.55;;;4.70;99.90;;;;;;4117945;28;20530;-79
2023/12/12 02:59:00;;;;;;;6.30;1.48;;;5.20;99.90;;;;;;4118205;28;20480;-79
2023/12/12 03:01:01;;;;;;;4.53;1.95;;;4.70;99.90;;;;;;4118208;28;20038;-79
2023/12/12 03:03:03;;;;;;;10.40;1.50;;;4.70;99.90;;;;;;4117682;28;20046;-80
2023/12/12 03:05:04;;;;;;;8.40;1.90;;;4.70;99.90;;;;;;4116639;28;20408;-80
2023/12/12 03:07:05;;;;;;;11.65;2.30;;;4.70;99.90;;;;;;4117283;28;20043;-80
2023/12/12 03:09:05;;;;;;;2.40;1.15;;;5.50;99.90;;;;;;4116457;28;20082;-80
2023/12/12 03:11:06;;;;;;;5.43;1.95;;;4.70;99.90;;;;;;4118628;28;20051;-80
2023/12/12 03:13:08;;;;;;;4.53;1.40;;;4.70;99.90;;;;;;4118314;28;20136;-80
2023/12/12 03:15:09;;;;;;;10.60;1.60;;;4.70;99.90;;;;;;4118611;28;20616;-80
2023/12/12 03:17:12;;;;;;;2.33;1.42;;;4.70;99.90;;;;;;4118047;28;20043;-80
2023/12/12 03:19:12;;;;;;;5.65;1.20;;;4.70;99.90;;;;;;4118682;28;20094;-80
2023/12/12 03:21:14;;;;;;;6.35;1.90;;;5.70;99.90;;;;;;4118284;28;20034;-80
2023/12/12 03:23:15;;;;;;;4.03;1.38;;;4.80;99.90;;;;;;4118106;28;20166;-80
2023/12/12 03:25:16;;;;;;;6.60;1.40;;;4.80;99.90;;;;;;4118092;28;20043;-80
2023/12/12 03:27:17;;;;;;;7.00;1.83;;;4.80;99.90;;;;;;4117444;28;20110;-80
2023/12/12 03:29:18;;;;;;;8.65;1.40;;;4.80;99.90;;;;;;4117842;28;20047;-80
2023/12/12 03:31:19;;;;;;;3.17;1.05;;;4.80;99.90;;;;;;4117871;28;20057;-80
2023/12/12 03:33:19;;;;;;;5.43;1.83;;;5.20;99.90;;;;;;4115687;28;20503;-80
2023/12/12 03:35:20;;;;;;;4.15;1.30;;;4.90;99.90;;;;;;4118349;28;20555;-80
2023/12/12 03:37:21;;;;;;;4.15;1.45;;;4.80;99.90;;;;;;4117886;28;20050;-80
2023/12/12 03:39:21;;;;;;;3.80;1.40;;;4.80;99.90;;;;;;4117423;28;20047;-80
2023/12/12 03:41:24;;;;;;;6.70;1.65;;;4.90;99.90;;;;;;4116871;28;20116;-80
2023/12/12 03:43:25;;;;;;;7.00;1.42;;;4.90;99.90;;;;;;4116371;28;20123;-80
2023/12/12 03:45:27;;;;;;;7.32;1.80;;;5.60;99.90;;;;;;4118072;28;20562;-80
2023/12/12 03:47:29;;;;;;;2.88;1.23;;;4.90;99.90;;;;;;4117885;28;20071;-80
2023/12/12 03:49:31;;;;;;;12.43;1.67;;;4.90;99.90;;;;;;4116790;28;20051;-80
2023/12/12 03:51:34;;;;;;;4.00;1.58;;;5.30;99.90;;;;;;4117811;28;20043;-80
2023/12/12 03:53:35;;;;;;;7.05;1.65;;;5.00;99.90;;;;;;4117785;28;20428;-80
2023/12/12 03:55:36;;;;;;;5.82;1.48;;;4.90;99.90;;;;;;4118022;28;20430;-80
2023/12/12 03:57:38;;;;;;;6.22;2.25;;;4.90;99.90;;;;;;4117458;28;20159;-80
2023/12/12 03:59:39;;;;;;;5.78;1.30;;;4.90;99.90;;;;;;4117233;28;20450;-80
2023/12/12 04:01:40;;;;;;;5.90;1.52;;;4.90;99.90;;;;;;4117879;28;20050;-80
2023/12/12 04:03:41;;;;;;;5.50;1.45;;;5.50;99.90;;;;;;4118928;28;20395;-80
2023/12/12 04:05:43;;;;;;;6.63;1.52;;;5.20;99.90;;;;;;4116461;28;20575;-81
2023/12/12 04:07:43;;;;;;;5.78;1.38;;;4.90;99.90;;;;;;4116574;28;20054;-81
2023/12/12 04:09:44;;;;;;;5.28;1.75;;;4.90;99.90;;;;;;4117251;28;20423;-81
2023/12/12 04:11:45;;;;;;;8.90;1.80;;;4.90;99.90;;;;;;4117954;28;20169;-81
2023/12/12 04:13:46;;;;;;;4.38;1.27;;;4.90;99.90;;;;;;4116976;28;20133;-80
2023/12/12 04:15:46;;;;;;;6.15;1.38;;;4.90;99.90;;;;;;4116835;28;20491;-81
2023/12/12 04:17:48;;;;;;;10.05;1.00;;;4.90;99.90;;;;;;4117798;28;20063;-80
2023/12/12 04:19:50;;;;;;;6.47;2.10;;;4.90;99.90;;;;;;4117856;28;20074;-81
2023/12/12 04:21:51;;;;;;;7.65;1.80;;;5.00;99.90;;;;;;4116759;28;20051;-80
2023/12/12 04:23:53;;;;;;;7.13;1.10;;;4.90;99.90;;;;;;4117964;28;20094;-81
2023/12/12 04:25:54;;;;;;;5.15;1.55;;;4.90;99.90;;;;;;4117041;28;20047;-81
2023/12/12 04:27:55;;;;;;;9.63;1.17;;;4.80;99.90;;;;;;4116752;28;20046;-81
2023/12/12 04:29:58;;;;;;;7.70;1.35;;;4.80;99.90;;;;;;4117104;28;20056;-80
2023/12/12 04:31:59;;;;;;;2.47;0.98;;;4.80;99.90;;;;;;4117969;28;20051;-80
2023/12/12 04:34:00;;;;;;;5.25;1.30;;;4.80;99.90;;;;;;4117392;28;20129;-80
2023/12/12 04:36:01;;;;;;;4.18;1.48;;;5.10;99.90;;;;;;4117341;28;20042;-81
2023/12/12 04:38:01;;;;;;;9.20;1.52;;;4.80;99.90;;;;;;4118171;28;20051;-81
2023/12/12 04:40:02;;;;;;;3.00;1.10;;;4.80;99.90;;;;;;4117302;28;20054;-81
2023/12/12 04:42:04;;;;;;;3.83;1.20;;;4.80;99.90;;;;;;4117652;28;20178;-81
2023/12/12 04:44:07;;;;;;;8.23;1.42;;;4.80;99.90;;;;;;4117636;28;20043;-81
2023/12/12 04:46:18;;;;;;;4.20;1.20;;;4.80;99.90;;;;;;4117758;28;20050;-81
2023/12/12 04:48:18;;;;;;;4.93;1.40;;;4.90;99.90;;;;;;4117849;28;20053;-80
2023/12/12 04:50:20;;;;;;;6.45;1.48;;;4.80;99.90;;;;;;4117060;28;20047;-81
2023/12/12 04:52:21;;;;;;;5.10;1.23;;;5.90;99.90;;;;;;4117200;28;20054;-81
2023/12/12 04:54:22;;;;;;;10.27;1.42;;;5.50;99.90;;;;;;4117912;28;20046;-81
2023/12/12 04:56:23;;;;;;;4.80;1.30;;;4.90;99.90;;;;;;4117512;28;20101;-81
2023/12/12 04:58:23;;;;;;;6.18;1.20;;;4.90;99.90;;;;;;4117766;28;20503;-81
2023/12/12 05:00:24;;;;;;;3.38;1.40;;;4.90;99.90;;;;;;4117320;28;20046;-81
2023/12/12 05:02:24;;;;;;;3.13;1.23;;;4.90;99.90;;;;;;4118187;28;20050;-81
2023/12/12 05:04:26;;;;;;;7.63;1.83;;;5.80;99.90;;;;;;4117731;28;20200;-81
2023/12/12 05:06:27;;;;;;;6.65;1.83;;;5.90;99.90;;;;;;4117538;28;20510;-80
2023/12/12 05:08:27;;;;;;;11.63;1.67;;;6.00;99.90;;;;;;4119500;28;20047;-80
2023/12/12 05:10:30;;;;;;;4.72;1.08;;;4.90;99.90;;;;;;4120751;28;20047;-81
2023/12/12 05:12:32;;;;;;;3.47;1.30;;;5.00;99.90;;;;;;4118891;28;20534;-80
2023/12/12 05:14:32;;;;;;;5.63;1.85;;;5.30;99.90;;;;;;4120138;28;20065;-81
2023/12/12 05:16:35;;;;;;;8.07;1.73;;;5.80;99.90;;;;;;4120497;28;20078;-80
2023/12/12 05:18:36;;;;;;;12.68;2.92;;;5.10;99.90;;;;;;4119518;28;20152;-81
2023/12/12 05:20:42;;;;;;;6.45;1.40;;;5.90;99.90;;;;;;4120795;28;20058;-80
2023/12/12 05:22:43;;;;;;;4.68;1.50;;;4.90;99.90;;;;;;4120654;28;20062;-80
2023/12/12 05:24:44;;;;;;;5.90;1.38;;;4.90;99.90;;;;;;4118987;28;20134;-80
2023/12/12 05:26:44;;;;;;;6.00;1.55;;;5.00;99.90;;;;;;4120318;28;20043;-80
2023/12/12 05:28:46;;;;;;;8.18;1.85;;;5.00;99.90;;;;;;4120467;28;20047;-81
2023/12/12 05:30:48;;;;;;;8.77;1.80;;;5.00;99.90;;;;;;4120114;28;20054;-81
2023/12/12 05:32:48;;;;;;;6.28;1.65;;;5.00;99.90;;;;;;4118622;28;20038;-81
2023/12/12 05:34:49;;;;;;;6.82;1.90;;;6.00;99.90;;;;;;4120511;28;20105;-81
2023/12/12 05:36:50;;;;;;;7.68;1.50;;;4.90;99.90;;;;;;4119949;28;20043;-78
2023/12/12 05:38:51;;;;;;;8.35;2.40;;;5.00;99.90;;;;;;4119872;28;20492;-78
2023/12/12 05:40:51;;;;;;;5.82;1.45;;;4.90;99.90;;;;;;4118792;28;20047;-80
2023/12/12 05:42:52;;;;;;;4.07;1.63;;;4.90;99.90;;;;;;4120123;28;20132;-79
2023/12/12 05:44:53;;;;;;;7.00;1.45;;;4.90;99.90;;;;;;4120027;28;20038;-78
2023/12/12 05:46:53;;;;;;;6.07;1.35;;;4.90;99.90;;;;;;4119737;28;20057;-78
2023/12/12 05:48:54;;;;;;;4.85;2.10;;;5.10;99.90;;;;;;4119633;28;20527;-79
2023/12/12 05:50:56;;;;;;;9.23;2.10;;;4.90;99.90;;;;;;4120149;28;20046;-78
2023/12/12 05:52:57;;;;;;;5.05;2.58;;;4.90;99.90;;;;;;4119912;28;20094;-79
2023/12/12 05:54:58;;;;;;;7.03;2.00;;;4.80;99.90;;;;;;4119107;28;20038;-79
2023/12/12 05:57:00;;;;;;;6.63;1.70;;;4.90;99.90;;;;;;4118401;28;20046;-79
2023/12/12 05:59:00;;;;;;;12.55;2.08;;;5.50;99.90;;;;;;4120353;28;20173;-80
2023/12/12 06:01:02;;;;;;;9.35;1.83;;;5.10;99.90;;;;;;4118715;28;20051;-79
2023/12/12 06:03:03;;;;;;;4.80;1.88;;;4.80;99.90;;;;;;4119750;28;20039;-79
2023/12/12 06:05:07;;;;;;;6.68;2.08;;;4.80;99.90;;;;;;4119461;28;20054;-79
2023/12/12 06:07:08;;;;;;;9.82;2.10;;;4.80;99.90;;;;;;4119598;28;20043;-79
2023/12/12 06:09:13;;;;;;;4.22;2.03;;;4.80;99.90;;;;;;4117564;28;20053;-79
2023/12/12 06:11:16;;;;;;;10.18;2.15;;;4.70;99.90;;;;;;4118766;28;20106;-79
2023/12/12 06:13:16;;;;;;;4.88;2.00;;;4.90;99.90;;;;;;4119416;28;20042;-80
2023/12/12 06:15:18;;;;;;;10.02;2.78;;;4.70;99.90;;;;;;4118487;28;20101;-80
2023/12/12 06:17:19;;;;;;;8.02;2.60;;;4.70;99.90;;;;;;4119749;28;20047;-79
2023/12/12 06:19:20;;;;;;;7.45;2.30;;;4.70;99.90;;;;;;4118606;28;20045;-79
2023/12/12 06:21:22;;;;;;;15.48;2.88;;;4.80;99.90;;;;;;4119699;28;20051;-80
2023/12/12 06:23:22;;;;;;;6.90;2.83;;;4.80;99.90;;;;;;4119317;28;20051;-80
2023/12/12 06:25:23;;;;;;;7.03;2.60;;;4.80;99.90;;;;;;4118879;28;20058;-80
2023/12/12 06:27:24;;;;;;;8.93;2.83;;;4.70;99.90;;;;;;4118379;28;20057;-80
2023/12/12 06:29:25;;;;;;;9.07;2.95;;;4.70;99.90;;;;;;4118438;28;20046;-80
2023/12/12 06:31:25;;;;;;;8.52;3.05;;;5.30;99.90;;;;;;4119200;28;20039;-80
2023/12/12 06:33:28;;;;;;;7.18;2.63;;;4.70;99.90;;;;;;4118876;28;20124;-80
2023/12/12 06:35:31;;;;;;;11.40;2.28;;;5.60;99.90;;;;;;4116639;28;20050;-81
2023/12/12 06:37:31;;;;;;;10.75;2.75;;;5.00;99.90;;;;;;4118132;28;20373;-81
2023/12/12 06:39:34;;;;;;;6.43;2.92;;;4.60;99.90;;;;;;4118515;28;20053;-81
2023/12/12 06:41:34;;;;;;;8.82;2.97;;;5.00;99.90;;;;;;4117681;28;20058;-81
2023/12/12 06:43:35;;;;;;;9.52;3.22;;;4.60;99.90;;;;;;4117559;28;20057;-81
2023/12/12 06:45:37;;;;;;;10.35;2.75;;;4.80;99.90;;;;;;4117998;28;20407;-81
2023/12/12 06:47:37;;;;;;;8.57;3.03;;;4.50;99.90;;;;;;4117874;28;20077;-81
2023/12/12 06:49:38;;;;;;;14.43;3.65;;;4.90;99.90;;;;;;4118398;28;20051;-81
2023/12/12 06:51:40;;;;;;;8.63;3.13;;;4.50;99.90;;;;;;4118072;28;20078;-81
2023/12/12 06:53:40;;;;;;;11.93;4.00;;;4.50;99.90;;;;;;4118157;28;20039;-81
2023/12/12 06:55:41;;;;;;;9.45;3.13;;;4.90;99.90;;;;;;4118438;28;20042;-82
2023/12/12 06:57:43;;;;;;;10.07;3.55;;;4.40;99.90;;;;;;4118793;28;20050;-81
2023/12/12 06:59:44;;;;;;;11.57;3.63;;;4.40;99.90;;;;;;4117030;28;20618;-81
2023/12/12 07:01:47;;;;;;;10.75;3.47;;;4.40;99.90;;;;;;4118381;28;20051;-81
2023/12/12 07:03:49;;;;;;;12.05;4.05;;;4.50;99.90;;;;;;4117570;28;20061;-81
2023/12/12 07:05:53;;;;;;;9.80;3.25;;;4.50;99.90;;;;;;4118243;28;20117;-81
2023/12/12 07:07:54;;;;;;;12.30;5.30;;;4.40;99.90;;;;;;4118232;28;20523;-81
2023/12/12 07:09:56;;;;;;;12.45;4.13;;;4.50;99.90;;;;;;4116314;28;20059;-81
2023/12/12 07:11:58;;;;;;;8.25;3.58;;;4.40;99.90;;;;;;4117181;28;20043;-80
2023/12/12 07:13:59;;;;;;;11.15;3.97;;;5.30;99.90;;;;;;4117124;28;20060;-81
2023/12/12 07:16:00;;;;;;;10.68;4.32;;;4.70;99.90;;;;;;4117857;28;20165;-81
2023/12/12 07:18:01;;;;;;;14.20;3.53;;;4.50;99.90;;;;;;4129690;28;20469;-81
2023/12/12 07:20:02;;;;;;;11.10;4.53;;;4.50;99.90;;;;;;4124892;28;20047;-81
2023/12/12 07:22:02;;;;;;;17.08;4.63;;;4.50;99.90;;;;;;4123159;28;20054;-81
2023/12/12 07:24:04;;;;;;;10.15;3.97;;;4.50;99.90;;;;;;4123407;28;20048;-81
2023/12/12 07:26:05;;;;;;;16.65;5.18;;;4.50;99.90;;;;;;4123666;28;20035;-81
2023/12/12 07:28:06;;;;;;;15.18;5.20;;;4.60;99.90;;;;;;4124189;28;20050;-81
2023/12/12 07:30:07;;;;;;;15.32;4.57;;;4.60;99.90;;;;;;4123304;28;20054;-81
2023/12/12 07:32:09;;;;;;;14.63;5.47;;;4.60;99.90;;;;;;4119460;28;20050;-81
2023/12/12 07:34:10;;;;;;;15.57;5.05;;;5.30;99.90;;;;;;4116139;28;20073;-81
2023/12/12 07:36:11;;;;;;;19.10;4.90;;;5.30;99.90;;;;;;4117613;28;20130;-81
2023/12/12 07:38:12;;;;;;;15.77;5.38;;;4.60;99.90;;;;;;4118117;28;20397;-81
2023/12/12 07:40:13;;;;;;;16.38;5.47;;;4.50;99.90;;;;;;4117159;28;20499;-81
2023/12/12 07:42:15;;;;;;;15.30;4.93;;;5.00;99.90;;;;;;4117521;28;20042;-81
2023/12/12 07:44:17;;;;;;;15.23;5.50;;;4.50;99.90;;;;;;4118570;28;20082;-81
2023/12/12 07:46:20;;;;;;;12.38;4.97;;;4.70;99.90;;;;;;4117857;28;20042;-82
2023/12/12 07:48:21;;;;;;;14.00;4.95;;;4.40;99.90;;;;;;4119307;28;20061;-82
2023/12/12 07:50:22;;;;;;;20.65;5.60;;;4.50;99.90;;;;;;4118845;28;20050;-81
2023/12/12 07:52:23;;;;;;;24.50;5.55;;;5.20;99.90;;;;;;4119285;28;20042;-81
2023/12/12 07:54:24;;;;;;;33.58;6.50;;;4.50;99.90;;;;;;4117870;28;20066;-81
2023/12/12 07:56:24;;;;;;;39.38;6.28;;;4.50;99.90;;;;;;4117420;28;20047;-82
2023/12/12 07:58:26;;;;;;;60.58;7.35;;;4.50;99.90;;;;;;4117128;28;20050;-82
2023/12/12 08:00:28;;;;;;;53.85;7.63;;;4.50;99.90;;;;;;4116806;28;20047;-81
2023/12/12 08:02:29;;;;;;;63.38;7.20;;;4.50;99.90;;;;;;4117181;28;20118;-81
2023/12/12 08:04:30;;;;;;;71.97;7.57;;;4.60;99.90;;;;;;4117385;28;20039;-82
2023/12/12 08:06:31;;;;;;;88.13;7.05;;;4.60;99.90;;;;;;4117540;28;20514;-81
2023/12/12 08:08:33;;;;;;;67.25;9.02;;;4.60;99.90;;;;;;4116701;28;20070;-80
2023/12/12 08:10:36;;;;;;;55.10;6.55;;;5.60;99.90;;;;;;4113339;28;20046;-82
2023/12/12 08:12:37;;;;;;;52.10;7.43;;;5.20;99.90;;;;;;4116967;28;20046;-82
2023/12/12 08:14:38;;;;;;;51.15;8.45;;;5.50;99.90;;;;;;4117931;28;20051;-82
2023/12/12 08:16:40;;;;;;;60.97;8.10;;;4.70;99.90;;;;;;4117670;28;20049;-82
2023/12/12 08:18:40;;;;;;;39.10;7.22;;;4.70;99.90;;;;;;4117739;28;20042;-82
2023/12/12 08:20:42;;;;;;;53.25;8.25;;;4.70;99.90;;;;;;4117087;28;20051;-83
2023/12/12 08:22:44;;;;;;;67.18;8.40;;;4.80;99.90;;;;;;4117969;28;20046;-82
2023/12/12 08:24:50;;;;;;;60.90;8.57;;;5.20;99.90;;;;;;4118079;28;20051;-81
2023/12/12 08:26:51;;;;;;;63.85;8.07;;;4.70;99.90;;;;;;4117582;28;20070;-82
2023/12/12 08:28:51;;;;;;;63.08;9.80;;;4.70;99.90;;;;;;4117332;28;20047;-82
2023/12/12 08:30:53;;;;;;;57.22;9.05;;;4.70;99.90;;;;;;4118579;28;20074;-82
2023/12/12 08:32:54;;;;;;;50.97;8.65;;;4.70;99.90;;;;;;4117827;28;20061;-82
2023/12/12 08:34:55;;;;;;;49.17;7.57;;;4.70;99.90;;;;;;4117105;28;20096;-82
2023/12/12 08:37:03;;;;;;;67.03;8.32;;;4.70;99.90;;;;;;4117347;28;20113;-82
2023/12/12 08:39:04;;;;;;;57.38;8.40;;;4.70;99.90;;;;;;4117817;28;20121;-81
2023/12/12 08:41:06;;;;;;;47.38;8.35;;;4.50;99.90;;;;;;4118030;28;20057;-82
2023/12/12 08:43:07;;;;;;;44.20;8.20;;;4.70;99.90;;;;;;4118272;28;20053;-82
2023/12/12 08:45:08;;;;;;;45.45;8.65;;;5.80;99.90;;;;;;4120876;28;20501;-81
2023/12/12 08:47:09;;;;;;;39.65;8.65;;;4.70;99.90;;;;;;4120644;28;20053;-82
2023/12/12 08:49:09;;;;;;;57.50;8.05;;;4.70;99.90;;;;;;4121096;28;20047;-82
2023/12/12 08:51:11;;;;;;;37.83;8.27;;;4.70;99.90;;;;;;4119491;28;20521;-82
2023/12/12 08:53:12;;;;;;;35.30;8.07;;;4.80;99.90;;;;;;4120802;28;20050;-82
2023/12/12 08:55:13;;;;;;;34.97;8.52;;;4.80;99.90;;;;;;4120397;28;20043;-82
2023/12/12 08:57:17;;;;;;;29.08;7.40;;;4.80;99.90;;;;;;4120530;28;20043;-82
2023/12/12 08:59:21;;;;;;;35.55;7.40;;;4.80;99.90;;;;;;4120585;28;20047;-83
2023/12/12 09:01:23;;;;;;;42.00;8.25;;;4.90;99.90;;;;;;4121127;28;20135;-82
2023/12/12 09:03:23;;;;;;;48.63;8.43;;;4.90;99.90;;;;;;4121191;28;20051;-82
2023/12/12 09:05:24;;;;;;;35.80;7.82;;;5.40;99.90;;;;;;4120722;28;20042;-82
2023/12/12 09:07:26;;;;;;;34.75;7.93;;;5.60;99.90;;;;;;4120503;28;20051;-82
2023/12/12 09:09:27;;;;;;;49.38;9.48;;;4.90;99.90;;;;;;4120314;28;20050;-81
2023/12/12 09:11:29;;;;;;;39.67;9.63;;;4.90;99.90;;;;;;4120430;28;20131;-81
2023/12/12 09:13:29;;;;;;;39.40;8.43;;;5.00;99.90;;;;;;4119745;28;20484;-82
2023/12/12 09:15:33;;;;;;;38.13;8.95;;;5.00;99.90;;;;;;4118334;28;20054;-81
2023/12/12 09:17:34;;;;;;;48.75;9.35;;;5.90;99.90;;;;;;4119252;28;20492;-82
2023/12/12 09:19:34;;;;;;;51.22;8.93;;;4.90;99.90;;;;;;4119350;28;20121;-82
2023/12/12 09:21:35;;;;;;;61.33;9.27;;;4.90;99.90;;;;;;4119765;28;20054;-82
2023/12/12 09:23:39;;;;;;;96.90;10.10;;;4.90;99.90;;;;;;4119259;28;20117;-81
2023/12/12 09:25:40;;;;;;;124.20;11.35;;;5.70;99.90;;;;;;4119072;28;20510;-81
2023/12/12 09:27:42;;;;;;;113.22;10.20;;;4.90;99.90;;;;;;4118731;28;20074;-82
2023/12/12 09:29:44;;;;;;;121.30;10.10;;;5.50;99.90;;;;;;4118048;28;20420;-82
2023/12/12 09:31:45;;;;;;;122.20;10.10;;;5.30;99.90;;;;;;4119519;28;20515;-82
2023/12/12 09:33:45;;;;;;;89.88;9.07;;;4.80;99.90;;;;;;4118939;28;20038;-82
2023/12/12 09:35:47;;;;;;;77.45;9.15;;;4.80;99.90;;;;;;4119357;28;20050;-82
2023/12/12 09:37:49;;;;;;;96.28;9.85;;;4.80;99.90;;;;;;4118947;28;20050;-82
2023/12/12 09:39:50;;;;;;;84.70;9.85;;;5.30;99.90;;;;;;4118992;28;20492;-82
2023/12/12 09:41:52;;;;;;;77.43;9.50;;;5.40;99.90;;;;;;4119722;28;20039;-82
2023/12/12 09:43:53;;;;;;;69.25;9.23;;;4.80;99.90;;;;;;4119611;28;20051;-82
2023/12/12 09:45:57;;;;;;;75.82;9.23;;;4.80;99.90;;;;;;4119374;28;20061;-82
2023/12/12 09:47:58;;;;;;;68.35;9.38;;;5.60;99.90;;;;;;4132343;28;20050;-81
2023/12/12 09:50:00;;;;;;;56.40;8.88;;;4.80;99.90;;;;;;4127961;28;20464;-82
2023/12/12 09:52:02;;;;;;;65.38;8.55;;;5.20;99.90;;;;;;4122324;28;20055;-82
2023/12/12 09:54:07;;;;;;;73.72;8.80;;;4.80;99.90;;;;;;4121102;28;20584;-82
2023/12/12 09:56:10;;;;;;;49.88;7.72;;;4.70;99.90;;;;;;4121381;28;20053;-82
2023/12/12 09:58:12;;;;;;;62.67;8.07;;;4.70;99.90;;;;;;4120888;28;20051;-82
2023/12/12 10:00:14;;;;;;;36.47;7.53;;;5.20;99.90;;;;;;4121464;28;20042;-82
2023/12/12 10:02:22;;;;;;;73.18;8.90;;;4.70;99.90;;;;;;4121042;28;20222;-82
2023/12/12 10:04:24;;;;;;;65.72;8.68;;;4.60;99.90;;;;;;4119037;28;20047;-81
2023/12/12 10:06:28;;;;;;;40.05;8.18;;;5.10;99.90;;;;;;4119143;28;20043;-82
2023/12/12 10:08:29;;;;;;;58.50;8.05;;;4.60;99.90;;;;;;4119071;28;20127;-82
2023/12/12 10:10:30;;;;;;;59.42;8.20;;;4.60;99.90;;;;;;4118450;28;20039;-82
2023/12/12 10:12:31;;;;;;;47.70;9.75;;;4.70;99.90;;;;;;4118594;28;20408;-82
2023/12/12 10:14:40;;;;;;;39.60;8.65;;;4.70;99.90;;;;;;4117824;28;20499;-84
2023/12/12 10:16:42;;;;;;;65.82;8.82;;;4.70;99.90;;;;;;4118847;28;20078;-83
2023/12/12 10:18:46;;;;;;;79.28;9.00;;;4.70;99.90;;;;;;4119689;28;20138;-83
2023/12/12 10:20:48;;;;;;;34.67;7.68;;;4.70;99.90;;;;;;4119522;28;20476;-83
2023/12/12 10:22:48;;;;;;;46.60;8.88;;;5.10;99.90;;;;;;4119425;28;20492;-83
2023/12/12 10:24:52;;;;;;;58.47;9.48;;;4.70;99.90;;;;;;4119371;28;20045;-82
2023/12/12 10:26:57;;;;;;;24.55;7.60;;;4.70;99.90;;;;;;4118276;28;20057;-83
2023/12/12 10:29:00;;;;;;;56.10;8.68;;;4.70;99.90;;;;;;4119195;28;20038;-82
2023/12/12 10:31:02;;;;;;;38.55;8.27;;;4.80;99.90;;;;;;4123921;28;20058;-83
2023/12/12 10:33:11;;;;;;;34.30;8.10;;;4.80;99.90;;;;;;4149141;28;20081;-82
2023/12/12 10:35:11;;;;;;;88.93;9.70;;;4.80;99.90;;;;;;4124552;28;20085;-82
2023/12/12 10:37:18;;;;;;;56.50;9.60;;;4.90;99.90;;;;;;4122920;28;20282;-82